Flight Track Log - Related Links

Times and Time Zones

All times are in EDT time to prevent confusion due to time zone crossing. See the VNR160 flight status page for this flight to view local times or setup timezone preferences in your user account.

Time Position Orientation Groundspeed Altitude Reporting Facility
EDT Latitude Longitude Course Direction KTS MPH feet Rate Location/Type
Mon 01:05:16 PM 33.6000 -111.9333 301° West 170 196 2,300  Level Phoenix TRACON
Mon 01:06:41 PM 33.6333 -112.0000 301° West 173 199 5,800 2,304 Climbing Phoenix TRACON
Mon 01:07:08 PM 33.6358 -112.0286 276° West 176 203 6,600 1,955 Climbing Albuquerque Center
Mon 01:08:10 PM 33.6581 -112.0861 295° West 188 216 8,700 2,304 Climbing Albuquerque Center
Mon 01:09:13 PM 33.6572 -112.1517 269° West 207 238 11,400 2,016 Climbing Albuquerque Center
Mon 01:10:15 PM 33.6367 -112.2214 251° West 220 253 12,900 774 Climbing Albuquerque Center
Mon 01:11:17 PM 33.6089 -112.3089 249° West 276 318 13,000 48 Climbing Albuquerque Center
Mon 01:12:19 PM 33.5794 -112.4069 250° West 310 357 13,000  Level Albuquerque Center
Mon 01:13:21 PM 33.5497 -112.5067 250° West 317 365 13,000 968 Level Albuquerque Center
Mon 01:14:23 PM 33.5186 -112.6056 249° West 284 327 15,000 1,742 Climbing Albuquerque Center
Mon 01:15:25 PM 33.4925 -112.6942 251° West 281 323 16,600 1,790 Climbing Albuquerque Center
Mon 01:16:27 PM 33.4600 -112.7986 250° West 280 322 18,700 1,645 Climbing Albuquerque Center
Mon 01:17:29 PM 33.4597 -112.8900 270° West 278 320 20,000 581 Climbing Albuquerque Center
Mon 01:18:31 PM 33.4681 -112.9950 275° West 306 352 19,900  Descending Albuquerque Center
Mon 01:19:33 PM 33.4764 -113.1078 275° West 331 381 20,000 48 Climbing Albuquerque Center
Mon 01:20:35 PM 33.4856 -113.2228 275° West 344 396 20,000  Level Albuquerque Center
Mon 01:21:37 PM 33.4964 -113.3622 275° West 350 403 20,000  Level Albuquerque Center
Mon 01:22:39 PM 33.5058 -113.4767 276° West 348 400 20,000  Level Albuquerque Center
Mon 01:23:41 PM 33.5144 -113.5925 275° West 349 402 20,000  Level Albuquerque Center
Mon 01:24:43 PM 33.5228 -113.7078 275° West 349 402 20,000  Level Albuquerque Center
Mon 01:25:45 PM 33.5314 -113.8225 275° West 348 400 20,000  Level Albuquerque Center
Mon 01:26:47 PM 33.5403 -113.9367 275° West 347 399 20,000  Level Albuquerque Center
Mon 01:27:49 PM 33.5506 -114.0750 275° West 348 400 20,000  Level Albuquerque Center
Mon 01:28:51 PM 33.5581 -114.1894 275° West 347 399 20,000  Level Albuquerque Center
Mon 01:29:53 PM 33.5644 -114.3053 274° West 348 400 20,000  Level Albuquerque Center
Mon 01:30:55 PM 33.5744 -114.4194 276° West 347 399 20,000  Level Albuquerque Center
Mon 01:31:57 PM 33.5822 -114.5344 275° West 347 399 20,000  Level Albuquerque Center
Mon 01:33:13 PM 33.5897 -114.6539 274° West 346 398 20,000  Level Los Angeles Center
Mon 01:34:15 PM 33.6131 -114.8103 280° West 341 392 20,000  Level Los Angeles Center
Mon 01:35:17 PM 33.6414 -114.8947 292° West 341 392 20,000  Level Los Angeles Center
Mon 01:36:20 PM 33.6831 -115.0217 292° West 342 394 20,000  Level Los Angeles Center
Mon 01:37:22 PM 33.7169 -115.1272 291° West 341 392 20,000 -265 Level Los Angeles Center
Mon 01:38:36 PM 33.7528 -115.2331 292° West 343 395 19,400 -1,324 Descending Los Angeles Center
Mon 01:39:38 PM 33.8003 -115.3806 291° West 341 392 17,000 -1,984 Descending Los Angeles Center
Mon 01:40:40 PM 33.8336 -115.4836 291° West 336 387 15,300 -1,645 Descending Los Angeles Center
Mon 01:41:42 PM 33.8661 -115.5853 291° West 328 377 13,600 -1,632 Descending Los Angeles Center
Mon 01:42:45 PM 33.8997 -115.6850 292° West 326 375 11,900 -1,632 Descending Los Angeles Center
Mon 01:43:47 PM 33.9136 -115.7800 280° West 319 367 10,200 -1,103 Descending Los Angeles Center
Mon 01:45:01 PM 33.9011 -115.8969 263° West 305 351 9,400 -971 Descending Los Angeles Center
Mon 01:46:03 PM 33.8294 -115.9678 219° Southwest 282 325 8,000 -1,258 Descending Los Angeles Center
Mon 01:47:05 PM 33.7858 -116.0367 233° Southwest 266 306 6,800 -871 Descending Los Angeles Center
Mon 01:48:07 PM 33.7564 -116.0936 238° Southwest 249 287 6,200 -581 Descending Los Angeles Center

Login

Don't have an account? Register now (free) for customized features, flight alerts, and more!